sensor_id;sensor_type;location;lat;lon;timestamp;pressure;altitude;pressure_sealevel;temperature;humidity
40940;BME280;26666;50.156;7.700;2023-05-22T00:01:36;100181.47;;;16.11;100.00
40940;BME280;26666;50.156;7.700;2023-05-22T00:06:41;100189.63;;;16.10;100.00
40940;BME280;26666;50.156;7.700;2023-05-22T00:11:44;100180.97;;;16.08;100.00
40940;BME280;26666;50.156;7.700;2023-05-22T00:16:46;100183.00;;;16.06;100.00
40940;BME280;26666;50.156;7.700;2023-05-22T00:21:48;100178.34;;;16.00;100.00
40940;BME280;26666;50.156;7.700;2023-05-22T00:26:52;100178.50;;;15.98;100.00
40940;BME280;26666;50.156;7.700;2023-05-22T00:31:54;100183.03;;;15.98;100.00
40940;BME280;26666;50.156;7.700;2023-05-22T00:36:55;100180.50;;;15.96;100.00
40940;BME280;26666;50.156;7.700;2023-05-22T00:41:59;100173.69;;;15.93;100.00
40940;BME280;26666;50.156;7.700;2023-05-22T00:47:01;100173.88;;;15.92;100.00
40940;BME280;26666;50.156;7.700;2023-05-22T00:52:03;100179.38;;;15.90;100.00
40940;BME280;26666;50.156;7.700;2023-05-22T00:57:06;100174.34;;;15.87;100.00
40940;BME280;26666;50.156;7.700;2023-05-22T01:02:08;100181.84;;;15.84;100.00
40940;BME280;26666;50.156;7.700;2023-05-22T01:07:10;100172.38;;;15.81;100.00
40940;BME280;26666;50.156;7.700;2023-05-22T01:12:18;100171.56;;;15.81;100.00
40940;BME280;26666;50.156;7.700;2023-05-22T01:17:27;100185.88;;;15.80;100.00
40940;BME280;26666;50.156;7.700;2023-05-22T01:22:53;100175.56;;;15.76;100.00
40940;BME280;26666;50.156;7.700;2023-05-22T01:28:23;100179.38;;;15.74;100.00
40940;BME280;26666;50.156;7.700;2023-05-22T01:33:35;100177.88;;;15.71;100.00
40940;BME280;26666;50.156;7.700;2023-05-22T01:38:42;100174.69;;;15.68;100.00
40940;BME280;26666;50.156;7.700;2023-05-22T01:43:44;100175.72;;;15.67;100.00
40940;BME280;26666;50.156;7.700;2023-05-22T01:48:48;100177.22;;;15.61;100.00
40940;BME280;26666;50.156;7.700;2023-05-22T01:53:52;100175.53;;;15.60;100.00
40940;BME280;26666;50.156;7.700;2023-05-22T01:59:00;100173.06;;;15.58;100.00
40940;BME280;26666;50.156;7.700;2023-05-22T02:04:05;100166.06;;;15.57;100.00
40940;BME280;26666;50.156;7.700;2023-05-22T02:09:07;100173.22;;;15.57;100.00
40940;BME280;26666;50.156;7.700;2023-05-22T02:14:10;100174.38;;;15.54;100.00
40940;BME280;26666;50.156;7.700;2023-05-22T02:19:14;100167.91;;;15.49;100.00
40940;BME280;26666;50.156;7.700;2023-05-22T02:24:17;100175.72;;;15.50;100.00
40940;BME280;26666;50.156;7.700;2023-05-22T02:29:18;100170.59;;;15.49;100.00
40940;BME280;26666;50.156;7.700;2023-05-22T02:34:21;100165.41;;;15.47;100.00
40940;BME280;26666;50.156;7.700;2023-05-22T02:39:23;100179.88;;;15.45;100.00
40940;BME280;26666;50.156;7.700;2023-05-22T02:44:25;100166.75;;;15.43;100.00
40940;BME280;26666;50.156;7.700;2023-05-22T02:49:28;100163.09;;;15.36;100.00
40940;BME280;26666;50.156;7.700;2023-05-22T02:54:29;100171.22;;;15.34;100.00
40940;BME280;26666;50.156;7.700;2023-05-22T02:59:31;100171.22;;;15.34;100.00
40940;BME280;26666;50.156;7.700;2023-05-22T03:04:34;100174.72;;;15.35;100.00
40940;BME280;26666;50.156;7.700;2023-05-22T03:09:36;100171.22;;;15.34;100.00
40940;BME280;26666;50.156;7.700;2023-05-22T03:14:38;100174.25;;;15.31;100.00
40940;BME280;26666;50.156;7.700;2023-05-22T03:19:41;100165.91;;;15.26;100.00
40940;BME280;26666;50.156;7.700;2023-05-22T03:24:42;100175.25;;;15.22;100.00
40940;BME280;26666;50.156;7.700;2023-05-22T03:29:44;100167.41;;;15.21;100.00
40940;BME280;26666;50.156;7.700;2023-05-22T03:34:47;100171.75;;;15.22;100.00
40940;BME280;26666;50.156;7.700;2023-05-22T03:39:49;100175.25;;;15.22;100.00
40940;BME280;26666;50.156;7.700;2023-05-22T03:44:51;100173.56;;;15.21;100.00
40940;BME280;26666;50.156;7.700;2023-05-22T03:49:54;100176.38;;;15.19;100.00
40940;BME280;26666;50.156;7.700;2023-05-22T03:54:55;100174.72;;;15.18;100.00
40940;BME280;26666;50.156;7.700;2023-05-22T03:59:57;100173.06;;;15.17;100.00
40940;BME280;26666;50.156;7.700;2023-05-22T04:05:00;100166.91;;;15.17;100.00
40940;BME280;26666;50.156;7.700;2023-05-22T04:10:02;100174.88;;;15.17;100.00
40940;BME280;26666;50.156;7.700;2023-05-22T04:15:05;100171.75;;;15.22;100.00
40940;BME280;26666;50.156;7.700;2023-05-22T04:20:09;100175.75;;;15.26;100.00
40940;BME280;26666;50.156;7.700;2023-05-22T04:25:11;100172.06;;;15.27;100.00
40940;BME280;26666;50.156;7.700;2023-05-22T04:30:13;100180.06;;;15.27;100.00
40940;BME280;26666;50.156;7.700;2023-05-22T04:35:17;100178.06;;;15.29;100.00
40940;BME280;26666;50.156;7.700;2023-05-22T04:40:19;100182.91;;;15.33;100.00
40940;BME280;26666;50.156;7.700;2023-05-22T04:45:21;100188.53;;;15.38;100.00
40940;BME280;26666;50.156;7.700;2023-05-22T04:50:24;100192.88;;;15.31;100.00
40940;BME280;26666;50.156;7.700;2023-05-22T04:55:27;100202.53;;;15.24;100.00
40940;BME280;26666;50.156;7.700;2023-05-22T05:00:55;100191.84;;;15.41;100.00
40940;BME280;26666;50.156;7.700;2023-05-22T05:06:13;100192.69;;;15.57;100.00
40940;BME280;26666;50.156;7.700;2023-05-22T05:11:14;100198.03;;;15.74;100.00
40940;BME280;26666;50.156;7.700;2023-05-22T05:16:16;100201.69;;;15.81;100.00
40940;BME280;26666;50.156;7.700;2023-05-22T05:21:19;100207.16;;;15.96;100.00
40940;BME280;26666;50.156;7.700;2023-05-22T05:26:21;100216.81;;;15.97;100.00
40940;BME280;26666;50.156;7.700;2023-05-22T05:31:23;100213.00;;;16.00;100.00
40940;BME280;26666;50.156;7.700;2023-05-22T05:36:26;100217.13;;;16.02;100.00
40940;BME280;26666;50.156;7.700;2023-05-22T05:41:28;100214.63;;;16.01;100.00
40940;BME280;26666;50.156;7.700;2023-05-22T05:46:30;100219.31;;;15.99;100.00
40940;BME280;26666;50.156;7.700;2023-05-22T05:51:33;100229.81;;;16.00;100.00
40940;BME280;26666;50.156;7.700;2023-05-22T05:56:35;100232.31;;;16.02;100.00
40940;BME280;26666;50.156;7.700;2023-05-22T06:01:37;100226.28;;;16.08;100.00
40940;BME280;26666;50.156;7.700;2023-05-22T06:06:40;100227.09;;;16.16;100.00
40940;BME280;26666;50.156;7.700;2023-05-22T06:11:42;100225.75;;;16.21;100.00
40940;BME280;26666;50.156;7.700;2023-05-22T06:16:44;100224.91;;;16.20;100.00
40940;BME280;26666;50.156;7.700;2023-05-22T06:21:47;100228.41;;;16.29;100.00
40940;BME280;26666;50.156;7.700;2023-05-22T06:26:51;100227.56;;;16.28;100.00
40940;BME280;26666;50.156;7.700;2023-05-22T06:31:53;100226.72;;;16.28;100.00
40940;BME280;26666;50.156;7.700;2023-05-22T06:36:56;100232.22;;;16.34;100.00
40940;BME280;26666;50.156;7.700;2023-05-22T06:41:58;100226.66;;;16.52;100.00
40940;BME280;26666;50.156;7.700;2023-05-22T06:47:00;100228.44;;;16.60;100.00
40940;BME280;26666;50.156;7.700;2023-05-22T06:52:04;100220.22;;;16.70;100.00
40940;BME280;26666;50.156;7.700;2023-05-22T06:57:06;100226.00;;;16.90;100.00
40940;BME280;26666;50.156;7.700;2023-05-22T07:02:07;100232.41;;;17.04;100.00
40940;BME280;26666;50.156;7.700;2023-05-22T07:07:10;100229.03;;;17.56;100.00
40940;BME280;26666;50.156;7.700;2023-05-22T07:12:12;100231.03;;;17.77;100.00
40940;BME280;26666;50.156;7.700;2023-05-22T07:17:14;100228.69;;;17.97;100.00
40940;BME280;26666;50.156;7.700;2023-05-22T07:22:17;100231.00;;;18.15;100.00
40940;BME280;26666;50.156;7.700;2023-05-22T07:27:19;100223.81;;;18.30;100.00
40940;BME280;26666;50.156;7.700;2023-05-22T07:32:20;100228.97;;;18.32;100.00
40940;BME280;26666;50.156;7.700;2023-05-22T07:37:23;100229.16;;;18.45;100.00
40940;BME280;26666;50.156;7.700;2023-05-22T07:42:25;100233.69;;;18.45;100.00
40940;BME280;26666;50.156;7.700;2023-05-22T07:47:27;100231.47;;;18.33;100.00
40940;BME280;26666;50.156;7.700;2023-05-22T07:52:30;100222.25;;;18.36;100.00
40940;BME280;26666;50.156;7.700;2023-05-22T07:57:32;100227.75;;;18.64;100.00
40940;BME280;26666;50.156;7.700;2023-05-22T08:02:34;100230.16;;;18.59;100.00
40940;BME280;26666;50.156;7.700;2023-05-22T08:07:37;100232.94;;;18.51;100.00
40940;BME280;26666;50.156;7.700;2023-05-22T08:12:39;100233.28;;;18.78;100.00
40940;BME280;26666;50.156;7.700;2023-05-22T08:17:40;100236.88;;;18.85;100.00
40940;BME280;26666;50.156;7.700;2023-05-22T08:22:43;100226.59;;;19.03;100.00
40940;BME280;26666;50.156;7.700;2023-05-22T08:27:45;100233.47;;;18.76;100.00
40940;BME280;26666;50.156;7.700;2023-05-22T08:32:47;100229.50;;;19.30;100.00
40940;BME280;26666;50.156;7.700;2023-05-22T08:37:50;100233.53;;;18.98;100.00
40940;BME280;26666;50.156;7.700;2023-05-22T08:42:52;100235.41;;;19.19;100.00
40940;BME280;26666;50.156;7.700;2023-05-22T08:47:54;100230.16;;;19.10;100.00
40940;BME280;26666;50.156;7.700;2023-05-22T08:52:59;100223.91;;;19.46;100.00
40940;BME280;26666;50.156;7.700;2023-05-22T08:58:03;100222.97;;;19.33;100.00
40940;BME280;26666;50.156;7.700;2023-05-22T09:03:05;100214.47;;;19.07;100.00
40940;BME280;26666;50.156;7.700;2023-05-22T09:08:08;100222.88;;;19.26;100.00
40940;BME280;26666;50.156;7.700;2023-05-22T09:13:24;100219.69;;;18.94;100.00
40940;BME280;26666;50.156;7.700;2023-05-22T09:18:27;100214.63;;;19.21;100.00
40940;BME280;26666;50.156;7.700;2023-05-22T09:23:30;100216.09;;;18.87;100.00
40940;BME280;26666;50.156;7.700;2023-05-22T09:28:33;100214.91;;;18.75;100.00
40940;BME280;26666;50.156;7.700;2023-05-22T09:33:35;100211.66;;;18.79;100.00
40940;BME280;26666;50.156;7.700;2023-05-22T09:38:39;100211.28;;;18.97;100.00
40940;BME280;26666;50.156;7.700;2023-05-22T09:43:48;100213.19;;;18.82;100.00
40940;BME280;26666;50.156;7.700;2023-05-22T09:48:50;100207.63;;;18.68;100.00
40940;BME280;26666;50.156;7.700;2023-05-22T09:53:57;100211.59;;;18.72;100.00
40940;BME280;26666;50.156;7.700;2023-05-22T09:59:04;100214.28;;;18.87;100.00
40940;BME280;26666;50.156;7.700;2023-05-22T10:04:11;100208.97;;;18.94;100.00
40940;BME280;26666;50.156;7.700;2023-05-22T10:09:15;100209.97;;;18.93;100.00
40940;BME280;26666;50.156;7.700;2023-05-22T10:14:20;100209.88;;;19.01;100.00
40940;BME280;26666;50.156;7.700;2023-05-22T10:19:23;100200.25;;;19.07;100.00
40940;BME280;26666;50.156;7.700;2023-05-22T10:24:27;100198.53;;;18.99;100.00
40940;BME280;26666;50.156;7.700;2023-05-22T10:29:34;100193.91;;;18.93;100.00
40940;BME280;26666;50.156;7.700;2023-05-22T10:34:41;100184.25;;;18.92;100.00
40940;BME280;26666;50.156;7.700;2023-05-22T10:40:00;100180.81;;;18.98;100.00
40940;BME280;26666;50.156;7.700;2023-05-22T10:45:06;100173.53;;;18.92;100.00
40940;BME280;26666;50.156;7.700;2023-05-22T10:50:10;100176.03;;;19.15;100.00
40940;BME280;26666;50.156;7.700;2023-05-22T10:55:13;100177.16;;;19.27;100.00
40940;BME280;26666;50.156;7.700;2023-05-22T11:00:18;100173.22;;;19.23;100.00
40940;BME280;26666;50.156;7.700;2023-05-22T11:05:34;100161.41;;;19.18;100.00
40940;BME280;26666;50.156;7.700;2023-05-22T11:10:54;100157.19;;;19.30;100.00
40940;BME280;26666;50.156;7.700;2023-05-22T11:15:57;100162.47;;;19.17;100.00
40940;BME280;26666;50.156;7.700;2023-05-22T11:20:59;100161.75;;;19.08;100.00
40940;BME280;26666;50.156;7.700;2023-05-22T11:26:17;100159.56;;;18.97;100.00
40940;BME280;26666;50.156;7.700;2023-05-22T11:31:19;100152.38;;;18.97;100.00
40940;BME280;26666;50.156;7.700;2023-05-22T11:36:23;100142.53;;;19.26;100.00
40940;BME280;26666;50.156;7.700;2023-05-22T11:41:31;100143.41;;;19.05;100.00
40940;BME280;26666;50.156;7.700;2023-05-22T11:46:34;100137.19;;;18.83;100.00
40940;BME280;26666;50.156;7.700;2023-05-22T11:51:37;100128.97;;;19.06;100.00
40940;BME280;26666;50.156;7.700;2023-05-22T11:56:40;100135.75;;;19.02;100.00
40940;BME280;26666;50.156;7.700;2023-05-22T12:01:42;100136.03;;;19.14;100.00
40940;BME280;26666;50.156;7.700;2023-05-22T12:06:44;100132.47;;;19.06;100.00
40940;BME280;26666;50.156;7.700;2023-05-22T12:11:47;100126.03;;;19.01;100.00
40940;BME280;26666;50.156;7.700;2023-05-22T12:16:50;100132.09;;;19.09;100.00
40940;BME280;26666;50.156;7.700;2023-05-22T12:21:53;100126.56;;;18.89;100.00
40940;BME280;26666;50.156;7.700;2023-05-22T12:26:56;100123.03;;;18.89;100.00
40940;BME280;26666;50.156;7.700;2023-05-22T12:32:01;100111.44;;;19.03;100.00
40940;BME280;26666;50.156;7.700;2023-05-22T12:37:02;100105.69;;;19.06;100.00
40940;BME280;26666;50.156;7.700;2023-05-22T12:42:06;100105.97;;;19.40;100.00
40940;BME280;26666;50.156;7.700;2023-05-22T12:47:08;100105.06;;;19.04;100.00
40940;BME280;26666;50.156;7.700;2023-05-22T12:52:09;100109.44;;;19.12;100.00
40940;BME280;26666;50.156;7.700;2023-05-22T12:57:12;100105.31;;;19.09;100.00
40940;BME280;26666;50.156;7.700;2023-05-22T13:02:14;100097.16;;;18.96;100.00
40940;BME280;26666;50.156;7.700;2023-05-22T13:07:19;100092.72;;;19.03;100.00
40940;BME280;26666;50.156;7.700;2023-05-22T13:12:22;100099.97;;;19.09;100.00
40940;BME280;26666;50.156;7.700;2023-05-22T13:17:24;100099.72;;;19.04;100.00
40940;BME280;26666;50.156;7.700;2023-05-22T13:22:26;100094.78;;;19.08;100.00
40940;BME280;26666;50.156;7.700;2023-05-22T13:27:29;100094.13;;;18.99;100.00
40940;BME280;26666;50.156;7.700;2023-05-22T13:32:34;100109.72;;;19.17;100.00
40940;BME280;26666;50.156;7.700;2023-05-22T13:37:35;100115.63;;;19.13;100.00
40940;BME280;26666;50.156;7.700;2023-05-22T13:42:39;100099.38;;;19.14;100.00
40940;BME280;26666;50.156;7.700;2023-05-22T13:47:40;100099.28;;;19.29;100.00
40940;BME280;26666;50.156;7.700;2023-05-22T13:52:42;100093.84;;;19.16;100.00
40940;BME280;26666;50.156;7.700;2023-05-22T13:57:47;100093.69;;;19.24;100.00
40940;BME280;26666;50.156;7.700;2023-05-22T14:02:49;100083.97;;;19.51;100.00
40940;BME280;26666;50.156;7.700;2023-05-22T14:07:51;100084.34;;;19.41;100.00
40940;BME280;26666;50.156;7.700;2023-05-22T14:12:54;100090.53;;;19.14;100.00
40940;BME280;26666;50.156;7.700;2023-05-22T14:17:56;100100.34;;;19.06;100.00
40940;BME280;26666;50.156;7.700;2023-05-22T14:23:00;100106.22;;;19.45;100.00
40940;BME280;26666;50.156;7.700;2023-05-22T14:28:03;100119.06;;;19.28;100.00
40940;BME280;26666;50.156;7.700;2023-05-22T14:33:05;100114.03;;;19.18;100.00
40940;BME280;26666;50.156;7.700;2023-05-22T14:38:10;100103.38;;;19.25;100.00
40940;BME280;26666;50.156;7.700;2023-05-22T14:43:14;100123.81;;;19.04;100.00
40940;BME280;26666;50.156;7.700;2023-05-22T14:48:16;100133.06;;;19.02;100.00
40940;BME280;26666;50.156;7.700;2023-05-22T14:53:18;100128.97;;;19.06;100.00
40940;BME280;26666;50.156;7.700;2023-05-22T14:58:21;100134.34;;;19.06;100.00
40940;BME280;26666;50.156;7.700;2023-05-22T15:03:25;100141.78;;;19.10;100.00
40940;BME280;26666;50.156;7.700;2023-05-22T15:08:27;100141.41;;;18.92;100.00
40940;BME280;26666;50.156;7.700;2023-05-22T15:13:30;100149.00;;;18.73;100.00
40940;BME280;26666;50.156;7.700;2023-05-22T15:18:32;100140.59;;;18.77;100.00
40940;BME280;26666;50.156;7.700;2023-05-22T15:23:33;100143.00;;;18.71;100.00
40940;BME280;26666;50.156;7.700;2023-05-22T15:28:37;100147.72;;;18.69;100.00
40940;BME280;26666;50.156;7.700;2023-05-22T15:33:38;100143.72;;;18.59;100.00
40940;BME280;26666;50.156;7.700;2023-05-22T15:38:40;100132.69;;;18.68;100.00
40940;BME280;26666;50.156;7.700;2023-05-22T15:43:43;100119.63;;;18.59;100.00
40940;BME280;26666;50.156;7.700;2023-05-22T15:48:45;100109.88;;;18.51;100.00
40940;BME280;26666;50.156;7.700;2023-05-22T15:53:46;100116.50;;;18.55;100.00
40940;BME280;26666;50.156;7.700;2023-05-22T15:58:50;100113.75;;;18.48;100.00
40940;BME280;26666;50.156;7.700;2023-05-22T16:03:51;100105.47;;;18.43;100.00
40940;BME280;26666;50.156;7.700;2023-05-22T16:08:53;100107.03;;;18.38;100.00
40940;BME280;26666;50.156;7.700;2023-05-22T16:13:56;100109.13;;;18.42;100.00
40940;BME280;26666;50.156;7.700;2023-05-22T16:18:58;100105.00;;;18.40;100.00
40940;BME280;26666;50.156;7.700;2023-05-22T16:24:00;100109.84;;;18.29;100.00
40940;BME280;26666;50.156;7.700;2023-05-22T16:29:05;100119.13;;;18.33;100.00
40940;BME280;26666;50.156;7.700;2023-05-22T16:34:07;100126.78;;;18.37;100.00
40940;BME280;26666;50.156;7.700;2023-05-22T16:39:09;100126.25;;;18.26;100.00
40940;BME280;26666;50.156;7.700;2023-05-22T16:44:12;100138.63;;;18.27;100.00
40940;BME280;26666;50.156;7.700;2023-05-22T16:49:14;100155.84;;;18.25;100.00
40940;BME280;26666;50.156;7.700;2023-05-22T16:54:15;100167.47;;;18.32;100.00
40940;BME280;26666;50.156;7.700;2023-05-22T16:59:18;100166.53;;;18.25;100.00
40940;BME280;26666;50.156;7.700;2023-05-22T17:04:20;100169.22;;;18.25;100.00
40940;BME280;26666;50.156;7.700;2023-05-22T17:09:25;100175.41;;;18.25;100.00
40940;BME280;26666;50.156;7.700;2023-05-22T17:14:32;100178.09;;;18.25;100.00
40940;BME280;26666;50.156;7.700;2023-05-22T17:19:33;100175.13;;;18.20;100.00
40940;BME280;26666;50.156;7.700;2023-05-22T17:24:35;100188.69;;;18.19;100.00
40940;BME280;26666;50.156;7.700;2023-05-22T17:29:39;100195.59;;;18.13;100.00
40940;BME280;26666;50.156;7.700;2023-05-22T17:34:40;100191.34;;;18.19;100.00
40940;BME280;26666;50.156;7.700;2023-05-22T17:39:42;100189.72;;;18.18;100.00
40940;BME280;26666;50.156;7.700;2023-05-22T17:44:45;100196.63;;;18.12;100.00
40940;BME280;26666;50.156;7.700;2023-05-22T17:49:47;100194.41;;;18.16;100.00
40940;BME280;26666;50.156;7.700;2023-05-22T17:54:48;100199.56;;;18.17;100.00
40940;BME280;26666;50.156;7.700;2023-05-22T17:59:51;100199.56;;;18.17;100.00
40940;BME280;26666;50.156;7.700;2023-05-22T18:04:53;100199.00;;;18.22;100.00
40940;BME280;26666;50.156;7.700;2023-05-22T18:09:55;100206.75;;;18.17;100.00
40940;BME280;26666;50.156;7.700;2023-05-22T18:14:58;100217.84;;;18.13;100.00
40940;BME280;26666;50.156;7.700;2023-05-22T18:20:00;100230.81;;;18.17;100.00
40940;BME280;26666;50.156;7.700;2023-05-22T18:25:02;100236.97;;;18.17;100.00
40940;BME280;26666;50.156;7.700;2023-05-22T18:30:09;100249.72;;;18.15;100.00
40940;BME280;26666;50.156;7.700;2023-05-22T18:35:10;100249.72;;;18.15;100.00
40940;BME280;26666;50.156;7.700;2023-05-22T18:40:12;100252.50;;;18.22;100.00
40940;BME280;26666;50.156;7.700;2023-05-22T18:45:15;100248.31;;;18.19;100.00
40940;BME280;26666;50.156;7.700;2023-05-22T18:50:17;100250.28;;;18.10;100.00
40940;BME280;26666;50.156;7.700;2023-05-22T18:55:22;100256.81;;;18.08;100.00
40940;BME280;26666;50.156;7.700;2023-05-22T19:00:25;100268.91;;;18.04;100.00
40940;BME280;26666;50.156;7.700;2023-05-22T19:05:26;100257.34;;;18.03;100.00
40940;BME280;26666;50.156;7.700;2023-05-22T19:10:28;100273.13;;;17.98;100.00
40940;BME280;26666;50.156;7.700;2023-05-22T19:15:32;100276.69;;;17.90;100.00
40940;BME280;26666;50.156;7.700;2023-05-22T19:20:36;100281.56;;;17.87;100.00
40940;BME280;26666;50.156;7.700;2023-05-22T19:25:38;100290.09;;;17.82;100.00
40940;BME280;26666;50.156;7.700;2023-05-22T19:30:42;100290.47;;;17.79;100.00
40940;BME280;26666;50.156;7.700;2023-05-22T19:35:44;100293.13;;;17.79;100.00
40940;BME280;26666;50.156;7.700;2023-05-22T19:40:46;100301.31;;;17.78;100.00
40940;BME280;26666;50.156;7.700;2023-05-22T19:45:49;100314.03;;;17.76;100.00
40940;BME280;26666;50.156;7.700;2023-05-22T19:50:51;100310.88;;;17.72;100.00
40940;BME280;26666;50.156;7.700;2023-05-22T19:55:52;100316.41;;;17.70;100.00
40940;BME280;26666;50.156;7.700;2023-05-22T20:00:55;100317.53;;;17.76;100.00
40940;BME280;26666;50.156;7.700;2023-05-22T20:05:57;100322.88;;;17.76;100.00
40940;BME280;26666;50.156;7.700;2023-05-22T20:10:59;100339.13;;;17.74;100.00
40940;BME280;26666;50.156;7.700;2023-05-22T20:16:02;100339.28;;;17.73;100.00
40940;BME280;26666;50.156;7.700;2023-05-22T20:21:04;100333.78;;;17.74;100.00
40940;BME280;26666;50.156;7.700;2023-05-22T20:26:05;100335.59;;;17.74;100.00
40940;BME280;26666;50.156;7.700;2023-05-22T20:31:09;100338.09;;;17.76;100.00
40940;BME280;26666;50.156;7.700;2023-05-22T20:36:10;100343.44;;;17.76;100.00
40940;BME280;26666;50.156;7.700;2023-05-22T20:41:12;100337.25;;;17.75;100.00
40940;BME280;26666;50.156;7.700;2023-05-22T20:46:15;100349.59;;;17.76;100.00
40940;BME280;26666;50.156;7.700;2023-05-22T20:51:17;100356.13;;;17.73;100.00
40940;BME280;26666;50.156;7.700;2023-05-22T20:56:18;100352.50;;;17.66;100.00
40940;BME280;26666;50.156;7.700;2023-05-22T21:01:22;100352.34;;;17.68;100.00
40940;BME280;26666;50.156;7.700;2023-05-22T21:06:24;100371.75;;;17.62;100.00
40940;BME280;26666;50.156;7.700;2023-05-22T21:11:26;100362.25;;;17.59;100.00
40940;BME280;26666;50.156;7.700;2023-05-22T21:16:29;100367.41;;;17.61;100.00
40940;BME280;26666;50.156;7.700;2023-05-22T21:21:31;100371.09;;;17.60;100.00
40940;BME280;26666;50.156;7.700;2023-05-22T21:26:33;100369.63;;;17.57;100.00
40940;BME280;26666;50.156;7.700;2023-05-22T21:31:36;100369.13;;;17.53;100.00
40940;BME280;26666;50.156;7.700;2023-05-22T21:36:38;100364.63;;;17.54;100.00
40940;BME280;26666;50.156;7.700;2023-05-22T21:41:39;100371.66;;;17.55;100.00
40940;BME280;26666;50.156;7.700;2023-05-22T21:46:43;100371.16;;;17.51;100.00
40940;BME280;26666;50.156;7.700;2023-05-22T21:51:44;100377.66;;;17.49;100.00
40940;BME280;26666;50.156;7.700;2023-05-22T21:56:46;100378.50;;;17.49;100.00
40940;BME280;26666;50.156;7.700;2023-05-22T22:01:49;100382.84;;;17.50;100.00
40940;BME280;26666;50.156;7.700;2023-05-22T22:06:51;100386.53;;;17.49;100.00
40940;BME280;26666;50.156;7.700;2023-05-22T22:11:53;100394.72;;;17.48;100.00
40940;BME280;26666;50.156;7.700;2023-05-22T22:16:56;100406.59;;;17.45;100.00
40940;BME280;26666;50.156;7.700;2023-05-22T22:21:57;100410.59;;;17.41;100.00
40940;BME280;26666;50.156;7.700;2023-05-22T22:26:59;100406.94;;;17.42;100.00
40940;BME280;26666;50.156;7.700;2023-05-22T22:32:02;100412.91;;;17.44;100.00
40940;BME280;26666;50.156;7.700;2023-05-22T22:37:04;100412.28;;;17.42;100.00
40940;BME280;26666;50.156;7.700;2023-05-22T22:42:06;100414.94;;;17.42;100.00
40940;BME280;26666;50.156;7.700;2023-05-22T22:47:09;100408.94;;;17.40;100.00
40940;BME280;26666;50.156;7.700;2023-05-22T22:52:11;100402.94;;;17.38;100.00
40940;BME280;26666;50.156;7.700;2023-05-22T22:57:13;100414.44;;;17.39;100.00
40940;BME280;26666;50.156;7.700;2023-05-22T23:02:16;100421.63;;;17.38;100.00
40940;BME280;26666;50.156;7.700;2023-05-22T23:07:18;100417.28;;;17.37;100.00
40940;BME280;26666;50.156;7.700;2023-05-22T23:12:19;100414.63;;;17.37;100.00
40940;BME280;26666;50.156;7.700;2023-05-22T23:17:22;100424.13;;;17.40;100.00
40940;BME280;26666;50.156;7.700;2023-05-22T23:22:24;100435.00;;;17.38;100.00
40940;BME280;26666;50.156;7.700;2023-05-22T23:27:26;100429.66;;;17.38;100.00
40940;BME280;26666;50.156;7.700;2023-05-22T23:32:29;100434.81;;;17.40;100.00
40940;BME280;26666;50.156;7.700;2023-05-22T23:37:31;100428.16;;;17.36;100.00
40940;BME280;26666;50.156;7.700;2023-05-22T23:42:32;100434.50;;;17.34;100.00
40940;BME280;26666;50.156;7.700;2023-05-22T23:47:35;100439.84;;;17.34;100.00
40940;BME280;26666;50.156;7.700;2023-05-22T23:52:37;100442.69;;;17.33;100.00
40940;BME280;26666;50.156;7.700;2023-05-22T23:57:39;100449.53;;;17.36;100.00
